Time;durP1;ratioP1;P1;durP2;ratioP2;P2;SDS_P1;SDS_P2;PMS_P1;PMS_P2;Temp;Humidity;BMP_temperature;BMP_pressure;BME280_temperature;BME280_humidity;BME280_pressure;Samples;Min_cycle;Max_cycle;Signal;HPM_P1;HPM_P2
2021/12/18 00:04:29;;;;;;;38.47;15.30;;;;;;;1.88;100.00;100099.53;31289960;28;20136;-82
2021/12/18 00:19:31;;;;;;;41.17;15.07;;;;;;;1.95;100.00;100091.56;31278722;28;20053;-83
2021/12/18 00:34:33;;;;;;;28.00;10.77;;;;;;;1.90;100.00;100086.53;31343479;28;20084;-84
2021/12/18 00:49:35;;;;;;;20.97;8.30;;;;;;;1.92;100.00;100085.03;31384666;28;20085;-83
2021/12/18 01:04:37;;;;;;;19.00;7.70;;;;;;;1.98;100.00;100098.91;31283242;28;20137;-85
2021/12/18 01:34:59;;;;;;;19.13;8.13;;;;;;;1.95;100.00;100110.31;31371110;28;20133;-84
2021/12/18 02:06:15;;;;;;;20.83;7.07;;;;;;;1.98;97.92;100133.69;31341290;28;20536;-83
2021/12/18 02:21:20;;;;;;;11.63;6.63;;;;;;;1.87;100.00;100135.47;31359834;28;20602;-84
2021/12/18 02:52:48;;;;;;;35.40;12.63;;;;;;;1.67;100.00;100170.28;31274569;28;20060;-83
2021/12/18 03:08:20;;;;;;;30.83;13.03;;;;;;;1.59;100.00;100174.00;31341802;28;20128;-82
2021/12/18 03:38:39;;;;;;;;;;;;;;;1.40;100.00;100192.75;31305679;28;20088;-84
2021/12/18 03:53:41;;;;;;;30.33;11.60;;;;;;;1.22;100.00;100202.31;31208931;28;1303726;-83
2021/12/18 04:08:42;;;;;;;26.13;11.50;;;;;;;1.08;100.00;100236.81;31263496;28;20068;-83
2021/12/18 04:23:44;;;;;;;25.10;10.43;;;;;;;1.07;100.00;100248.63;31414653;28;20076;-83
2021/12/18 04:39:00;;;;;;;19.23;8.93;;;;;;;1.03;100.00;100249.31;31395383;28;20049;-84
2021/12/18 04:54:03;;;;;;;18.03;8.80;;;;;;;0.99;100.00;100259.16;31291195;28;20144;-83
2021/12/18 05:09:05;;;;;;;19.87;8.27;;;;;;;1.06;100.00;100285.28;31323437;28;20137;-85
2021/12/18 05:24:19;;;;;;;23.90;11.17;;;;;;;1.03;100.00;100294.78;31370699;28;20049;-84
2021/12/18 05:39:21;;;;;;;28.67;11.70;;;;;;;1.02;100.00;100311.94;31414310;28;20502;-85
2021/12/18 05:54:23;;;;;;;28.50;10.90;;;;;;;1.10;100.00;100333.47;31380523;28;20148;-84
2021/12/18 06:09:25;;;;;;;22.80;7.87;;;;;;;1.17;100.00;100360.38;31410393;28;20372;-84
2021/12/18 06:24:34;;;;;;;12.70;6.63;;;;;;;1.30;98.76;100365.25;31376188;28;20379;-84
2021/12/18 06:40:12;;;;;;;8.97;4.20;;;;;;;1.46;96.40;100375.91;31350545;28;20076;-84
2021/12/18 06:56:20;;;;;;;5.93;2.97;;;;;;;1.55;93.98;100392.56;31382860;28;20089;-84
2021/12/18 07:11:24;;;;;;;6.00;3.47;;;;;;;1.69;94.79;100397.41;31271879;28;20049;-83
2021/12/18 07:26:37;;;;;;;6.30;3.27;;;;;;;1.82;92.03;100400.75;31337028;28;20053;-84
2021/12/18 07:41:39;;;;;;;9.50;3.93;;;;;;;1.91;93.36;100431.53;31266110;28;20559;-82
2021/12/18 07:56:41;;;;;;;8.60;4.53;;;;;;;1.93;93.89;100455.28;31299360;28;20141;-80
2021/12/18 08:11:43;;;;;;;10.70;5.30;;;;;;;2.01;95.59;100444.38;31355570;28;20055;-79
2021/12/18 08:26:45;;;;;;;12.77;5.83;;;;;;;2.12;94.39;100441.91;31343553;28;20059;-79
2021/12/18 08:41:47;;;;;;;13.57;4.53;;;;;;;2.33;93.92;100434.28;31307391;28;20491;-82
2021/12/18 08:56:49;;;;;;;13.67;4.80;;;;;;;2.39;93.85;100432.84;31315720;28;20053;-79
2021/12/18 09:11:51;;;;;;;13.27;5.73;;;;;;;2.34;94.31;100443.88;31297035;28;20075;-78
2021/12/18 09:26:53;;;;;;;11.03;5.93;;;;;;;2.36;94.95;100446.22;31344647;28;20122;-79
2021/12/18 09:41:55;;;;;;;13.70;5.37;;;;;;;2.28;93.67;100442.59;31335824;28;20076;-78
2021/12/18 09:56:57;;;;;;;12.70;5.33;;;;;;;2.23;94.55;100448.25;31319137;28;20767;-77
2021/12/18 10:12:15;;;;;;;11.77;5.00;;;;;;;2.21;91.42;100455.84;31324107;28;20490;-77
2021/12/18 10:27:24;;;;;;;9.40;4.47;;;;;;;2.27;92.71;100448.31;31333110;28;20052;-77
2021/12/18 10:42:31;;;;;;;12.40;4.07;;;;;;;2.40;92.13;100447.81;31312861;28;20132;-78
2021/12/18 10:57:33;;;;;;;8.90;3.67;;;;;;;2.47;89.85;100452.53;31346786;28;20130;-78
2021/12/18 11:27:56;;;;;;;5.70;2.70;;;;;;;2.54;87.92;100457.25;31306724;28;20161;-81
2021/12/18 11:42:58;;;;;;;9.30;3.43;;;;;;;2.46;84.14;100450.19;31335843;28;20045;-79
2021/12/18 11:58:12;;;;;;;10.87;2.93;;;;;;;2.45;84.76;100454.78;31347796;28;20065;-78
2021/12/18 12:13:14;;;;;;;7.80;3.07;;;;;;;2.37;85.22;100475.28;31307534;28;20047;-79
2021/12/18 12:28:20;;;;;;;4.97;2.63;;;;;;;2.28;86.10;100476.66;31323320;28;20464;-78
2021/12/18 12:43:25;;;;;;;;;;;;;;;2.30;83.40;100491.25;31341914;28;20497;-80
2021/12/18 12:58:27;;;;;;;8.10;2.67;;;;;;;2.19;84.84;100489.47;31362778;28;20439;-83
2021/12/18 13:13:34;;;;;;;10.37;3.93;;;;;;;2.23;85.63;100501.81;31331473;28;20495;-86
2021/12/18 13:28:49;;;;;;;11.70;4.50;;;;;;;2.13;86.60;100507.72;31362385;28;20139;-83
2021/12/18 13:43:56;;;;;;;17.53;5.73;;;;;;;2.05;88.60;100522.88;31331249;28;20084;-76
2021/12/18 13:58:59;;;;;;;13.20;6.17;;;;;;;2.06;89.48;100531.69;31317646;28;20143;-74
2021/12/18 14:14:04;;;;;;;10.13;4.50;;;;;;;1.98;91.29;100529.97;31303185;28;20126;-74
2021/12/18 14:29:14;;;;;;;13.10;5.23;;;;;;;1.98;91.55;100527.31;31344966;28;20674;-75
2021/12/18 14:44:16;;;;;;;8.57;4.33;;;;;;;1.89;93.54;100538.19;31274941;28;20076;-75
2021/12/18 14:59:18;;;;;;;10.50;5.50;;;;;;;1.79;94.64;100543.31;31370359;28;20075;-75
2021/12/18 15:14:39;;;;;;;16.03;7.07;;;;;;;1.79;94.64;100551.34;31330519;28;20044;-74
2021/12/18 15:29:46;;;;;;;16.23;5.63;;;;;;;1.80;94.29;100566.28;31325176;28;20486;-75
2021/12/18 15:44:48;;;;;;;19.57;7.27;;;;;;;1.81;94.50;100578.56;31316192;28;20057;-75
2021/12/18 15:59:50;;;;;;;15.17;6.60;;;;;;;1.63;94.22;100576.25;31315874;28;20041;-76
2021/12/18 16:14:52;;;;;;;12.30;4.90;;;;;;;1.60;93.60;100576.94;31286538;28;20064;-78
2021/12/18 16:29:54;;;;;;;17.53;6.70;;;;;;;1.44;93.11;100589.50;31355146;28;20791;-76
2021/12/18 16:44:57;;;;;;;8.40;4.73;;;;;;;1.43;94.21;100585.28;31341972;28;20060;-82
2021/12/18 17:00:12;;;;;;;6.47;2.77;;;;;;;1.28;93.97;100602.09;31344323;28;20108;-78
2021/12/18 17:15:14;;;;;;;10.17;3.50;;;;;;;1.25;90.75;100592.09;31331860;28;20056;-76
2021/12/18 17:30:18;;;;;;;14.43;5.27;;;;;;;1.21;91.30;100591.22;31324895;28;20071;-76
2021/12/18 17:45:21;;;;;;;12.47;3.50;;;;;;;1.21;89.29;100575.94;31339047;28;20063;-77
2021/12/18 18:00:30;;;;;;;8.90;4.73;;;;;;;1.12;86.89;100582.59;31324751;28;20056;-75
2021/12/18 18:15:32;;;;;;;9.33;3.63;;;;;;;1.14;87.01;100578.47;31302131;28;20089;-74
2021/12/18 18:30:35;;;;;;;7.33;1.90;;;;;;;1.21;88.61;100581.28;31296803;28;20056;-75
2021/12/18 18:46:08;;;;;;;1.63;1.20;;;;;;;1.41;87.06;100579.53;31294864;28;20068;-75
2021/12/18 19:01:10;;;;;;;3.60;1.30;;;;;;;1.28;88.40;100586.06;31321992;28;20050;-76
2021/12/18 19:16:13;;;;;;;2.07;1.40;;;;;;;1.11;88.58;100599.75;31290740;28;20155;-75
2021/12/18 19:31:15;;;;;;;7.37;2.90;;;;;;;0.97;89.04;100584.09;31304022;28;20053;-73
2021/12/18 19:46:17;;;;;;;4.80;2.63;;;;;;;0.93;90.90;100576.00;31306751;28;20056;-73
2021/12/18 20:01:20;;;;;;;6.00;2.97;;;;;;;0.96;90.73;100575.28;31294480;28;20089;-75
2021/12/18 20:16:22;;;;;;;3.77;2.10;;;;;;;0.93;89.66;100580.56;31355251;28;20056;-73
2021/12/18 20:31:24;;;;;;;2.90;2.10;;;;;;;0.98;89.13;100583.75;31325541;28;20052;-75
2021/12/18 20:46:26;;;;;;;3.20;2.10;;;;;;;1.01;89.53;100588.41;31336944;28;20064;-79
2021/12/18 21:01:30;;;;;;;3.50;1.80;;;;;;;1.16;91.32;100578.91;31350117;28;20083;-76
2021/12/18 21:16:36;;;;;;;2.13;1.73;;;;;;;1.06;89.08;100541.16;31343745;28;20049;-79
2021/12/18 21:31:38;;;;;;;2.53;1.80;;;;;;;1.10;88.42;100532.13;31321950;28;20049;-78
2021/12/18 21:46:40;;;;;;;1.57;1.40;;;;;;;1.03;87.41;100527.38;31374376;28;20060;-78
2021/12/18 22:01:42;;;;;;;1.67;1.30;;;;;;;1.07;84.33;100516.00;31306667;28;20160;-77
2021/12/18 22:16:47;;;;;;;2.00;1.37;;;;;;;1.01;85.95;100513.56;31291341;28;20127;-76
2021/12/18 22:31:49;;;;;;;3.87;2.13;;;;;;;0.86;88.77;100498.28;31307003;28;20049;-79
2021/12/18 22:46:51;;;;;;;2.33;1.70;;;;;;;0.72;90.20;100489.88;31292859;28;20465;-80
2021/12/18 23:01:53;;;;;;;4.83;1.57;;;;;;;0.79;90.91;100473.28;31292263;28;20057;-77
2021/12/18 23:17:04;;;;;;;2.73;1.57;;;;;;;0.82;89.79;100472.59;31278260;28;20051;-77
2021/12/18 23:32:06;;;;;;;1.40;1.20;;;;;;;0.64;89.63;100456.09;31305363;28;20180;-78
2021/12/18 23:47:08;;;;;;;5.30;2.00;;;;;;;0.67;89.24;100450.09;31298623;28;20054;-76
